createdAt,value
2023-12-01T00:00:09.775Z,2.760
2023-12-01T00:01:10.376Z,0.960
2023-12-01T00:02:10.187Z,1.480
2023-12-01T00:04:10.810Z,2.754
2023-12-01T00:05:09.685Z,2.400
2023-12-01T00:06:10.408Z,1.160
2023-12-01T00:07:09.961Z,0.560
2023-12-01T00:08:10.445Z,1.880
2023-12-01T00:11:10.272Z,1.080
2023-12-01T00:12:10.210Z,1.680
2023-12-01T00:13:10.429Z,1.360
2023-12-01T00:14:10.003Z,1.680
2023-12-01T00:15:10.624Z,3.108
2023-12-01T00:16:10.380Z,2.725
2023-12-01T00:17:09.969Z,2.520
2023-12-01T00:19:10.807Z,3.895
2023-12-01T00:20:09.948Z,3.254
2023-12-01T00:23:10.090Z,2.560
2023-12-01T00:24:10.139Z,3.880
2023-12-01T00:25:10.149Z,4.880
2023-12-01T00:26:10.410Z,4.640
2023-12-01T00:29:10.553Z,3.040
2023-12-01T00:30:10.053Z,2.960
2023-12-01T00:31:09.794Z,2.520
2023-12-01T00:32:10.671Z,4.564
2023-12-01T00:33:10.459Z,4.475
2023-12-01T00:35:09.902Z,3.600
2023-12-01T00:36:09.944Z,2.840
2023-12-01T00:37:10.234Z,4.240
2023-12-01T00:40:10.257Z,4.280
2023-12-01T00:41:09.795Z,5.200
2023-12-01T00:42:10.357Z,4.320
2023-12-01T00:43:10.443Z,4.600
2023-12-01T00:44:10.597Z,3.640
2023-12-01T00:45:10.140Z,3.360
2023-12-01T00:46:10.716Z,3.384
2023-12-01T00:47:10.312Z,2.766
2023-12-01T00:48:10.410Z,3.600
2023-12-01T00:50:10.572Z,3.960
2023-12-01T00:51:10.227Z,2.200
2023-12-01T00:52:09.970Z,3.600
2023-12-01T00:53:10.246Z,2.960
2023-12-01T00:54:10.152Z,2.160
2023-12-01T00:55:10.501Z,3.600
2023-12-01T00:57:09.852Z,2.320
2023-12-01T00:58:10.460Z,2.560
2023-12-01T00:59:10.021Z,4.080
2023-12-01T01:00:10.742Z,2.282
2023-12-01T01:01:10.425Z,1.871
2023-12-01T01:03:10.165Z,3.000
2023-12-01T01:04:13.184Z,2.160
2023-12-01T01:05:10.262Z,1.920
2023-12-01T01:08:10.217Z,1.440
2023-12-01T01:09:10.334Z,1.440
2023-12-01T01:10:09.953Z,3.480
2023-12-01T01:11:10.531Z,2.880
2023-12-01T01:12:10.126Z,1.480
2023-12-01T01:13:10.772Z,1.967
2023-12-01T01:14:10.313Z,2.034
2023-12-01T01:16:10.062Z,3.960
2023-12-01T01:17:10.502Z,2.360
2023-12-01T01:18:10.052Z,2.560
2023-12-01T01:19:10.153Z,2.640
2023-12-01T01:20:09.896Z,2.520
2023-12-01T01:21:10.247Z,3.120
2023-12-01T01:22:09.769Z,1.480
2023-12-01T01:23:10.422Z,3.960
2023-12-01T01:24:10.074Z,4.280
2023-12-01T01:25:10.703Z,4.328
2023-12-01T01:26:10.252Z,3.417
2023-12-01T01:27:10.553Z,3.148
2023-12-01T01:29:09.846Z,3.160
2023-12-01T01:30:09.770Z,1.960
2023-12-01T01:31:10.494Z,3.320
2023-12-01T01:33:10.004Z,3.720
2023-12-01T01:34:10.229Z,2.440
2023-12-01T01:35:10.372Z,1.720
2023-12-01T01:36:10.268Z,3.080
2023-12-01T01:37:09.875Z,2.440
2023-12-01T01:38:10.557Z,1.840
2023-12-01T01:39:10.149Z,2.600
2023-12-01T01:40:10.226Z,2.120
2023-12-01T01:41:10.256Z,0.760
2023-12-01T01:42:09.742Z,2.480
2023-12-01T01:43:10.376Z,1.760
2023-12-01T01:44:09.997Z,1.760
2023-12-01T01:45:09.800Z,2.680
2023-12-01T01:46:10.040Z,2.960
2023-12-01T01:47:09.747Z,1.640
2023-12-01T01:48:10.333Z,2.680
2023-12-01T01:49:10.091Z,1.680
2023-12-01T01:50:10.365Z,0.640
2023-12-01T01:51:10.234Z,1.880
2023-12-01T01:52:10.450Z,1.040
2023-12-01T01:54:10.592Z,1.849
2023-12-01T01:55:10.278Z,3.905
2023-12-01T01:56:09.988Z,4.160
2023-12-01T01:57:10.525Z,1.880
2023-12-01T01:58:10.044Z,0.800
2023-12-01T02:00:10.166Z,3.360
2023-12-01T02:01:10.019Z,3.400
2023-12-01T02:02:10.858Z,2.840
2023-12-01T02:03:10.323Z,2.240
2023-12-01T02:04:10.553Z,3.000
2023-12-01T02:06:10.337Z,1.840
2023-12-01T02:08:10.437Z,3.320
2023-12-01T02:09:10.061Z,2.920
2023-12-01T02:10:10.724Z,1.456
2023-12-01T02:11:10.328Z,1.586
2023-12-01T02:13:10.406Z,0.840
2023-12-01T02:14:10.250Z,1.280
2023-12-01T02:16:10.749Z,2.007
2023-12-01T02:17:10.491Z,1.261
2023-12-01T02:18:10.647Z,2.000
2023-12-01T02:19:10.455Z,1.920
2023-12-01T02:21:10.518Z,2.800
2023-12-01T02:22:10.812Z,2.715
2023-12-01T02:23:10.645Z,2.560
2023-12-01T02:24:10.158Z,1.790
2023-12-01T02:26:10.578Z,2.793
2023-12-01T02:27:10.211Z,1.302
2023-12-01T02:30:09.943Z,2.400
2023-12-01T02:31:10.718Z,1.360
2023-12-01T02:32:10.799Z,1.534
2023-12-01T02:33:10.390Z,2.481
2023-12-01T02:35:10.032Z,2.000
2023-12-01T02:36:10.523Z,2.640
2023-12-01T02:37:10.133Z,1.400
2023-12-01T02:38:10.111Z,1.320
2023-12-01T02:40:09.964Z,1.400
2023-12-01T02:41:11.096Z,1.360
2023-12-01T02:43:10.268Z,2.929
2023-12-01T02:44:10.679Z,3.187
2023-12-01T02:46:10.069Z,2.440
2023-12-01T02:47:09.848Z,1.080
2023-12-01T02:48:10.468Z,1.320
2023-12-01T02:51:10.285Z,2.080
2023-12-01T02:52:09.909Z,2.000
2023-12-01T02:53:10.620Z,1.259
2023-12-01T02:56:10.534Z,2.920
2023-12-01T02:57:10.144Z,3.920
2023-12-01T03:00:10.133Z,3.200
2023-12-01T03:01:10.360Z,2.800
2023-12-01T03:02:10.239Z,3.560
2023-12-01T03:03:10.404Z,3.000
2023-12-01T03:04:10.181Z,2.800
2023-12-01T03:05:10.389Z,4.440
2023-12-01T03:06:09.877Z,4.040
2023-12-01T03:07:10.954Z,2.715
2023-12-01T03:08:09.883Z,3.824
2023-12-01T03:12:12.435Z,4.160
2023-12-01T03:13:09.952Z,4.840
2023-12-01T03:14:10.489Z,3.840
2023-12-01T03:15:14.709Z,3.960
2023-12-01T03:16:10.337Z,3.720
2023-12-01T03:17:09.796Z,3.400
2023-12-01T03:18:10.779Z,3.777
2023-12-01T03:19:10.026Z,3.864
2023-12-01T03:20:10.637Z,3.659
2023-12-01T03:21:10.245Z,2.725
2023-12-01T03:22:10.634Z,2.360
2023-12-01T03:23:10.176Z,3.240
2023-12-01T03:25:10.687Z,2.640
2023-12-01T03:26:10.253Z,1.880
2023-12-01T03:29:10.012Z,1.920
2023-12-01T03:30:10.543Z,2.007
2023-12-01T03:31:10.188Z,1.139
2023-12-01T03:34:10.311Z,0.200
2023-12-01T03:35:09.915Z,1.960
2023-12-01T03:36:10.207Z,1.960
2023-12-01T03:37:09.939Z,1.800
2023-12-01T03:38:10.056Z,1.640
2023-12-01T03:39:09.919Z,2.360
2023-12-01T03:40:10.194Z,1.320
2023-12-01T03:41:10.761Z,1.652
2023-12-01T03:42:10.399Z,1.708
2023-12-01T03:43:10.278Z,1.520
2023-12-01T03:44:10.463Z,3.320
2023-12-01T03:45:10.014Z,1.880
2023-12-01T03:46:10.045Z,3.040
2023-12-01T03:47:10.246Z,1.760
2023-12-01T03:49:10.574Z,3.360
2023-12-01T03:50:10.321Z,2.440
2023-12-01T03:51:10.493Z,2.040
2023-12-01T03:53:09.967Z,2.280
2023-12-01T03:54:10.035Z,2.680
2023-12-01T03:55:10.695Z,2.320
2023-12-01T03:56:09.975Z,2.160
2023-12-01T03:57:10.226Z,3.200
2023-12-01T03:58:10.268Z,3.200
2023-12-01T03:59:10.592Z,3.541
2023-12-01T04:00:10.212Z,3.864
2023-12-01T04:01:09.978Z,3.120
2023-12-01T04:02:10.062Z,4.040
2023-12-01T04:03:10.027Z,3.040
2023-12-01T04:04:09.911Z,2.320
2023-12-01T04:05:10.428Z,1.240
2023-12-01T04:06:10.200Z,2.920
2023-12-01T04:09:09.837Z,3.920
2023-12-01T04:10:10.140Z,2.040
2023-12-01T04:11:10.400Z,1.880
2023-12-01T04:12:09.787Z,1.280
2023-12-01T04:13:10.396Z,1.120
2023-12-01T04:14:10.230Z,1.760
2023-12-01T04:15:10.595Z,1.920
2023-12-01T04:17:09.932Z,1.440
2023-12-01T04:18:10.735Z,1.889
2023-12-01T04:19:10.525Z,2.400
2023-12-01T04:23:10.079Z,2.600
2023-12-01T04:27:10.243Z,1.640
2023-12-01T04:28:10.462Z,1.880
2023-12-01T04:29:10.079Z,0.960
2023-12-01T04:30:10.554Z,2.990
2023-12-01T04:31:14.266Z,2.400
2023-12-01T04:32:10.491Z,1.000
2023-12-01T04:33:10.527Z,1.520
2023-12-01T04:34:10.369Z,1.200
2023-12-01T04:35:10.113Z,1.520
2023-12-01T04:39:10.259Z,1.831
2023-12-01T04:40:10.361Z,2.040
2023-12-01T04:42:10.313Z,1.640
2023-12-01T04:43:09.884Z,1.960
2023-12-01T04:44:10.640Z,2.125
2023-12-01T04:45:10.257Z,2.075
2023-12-01T04:47:10.066Z,0.720
2023-12-01T04:48:10.306Z,0.840
2023-12-01T04:49:11.192Z,1.520
2023-12-01T04:50:09.941Z,0.680
2023-12-01T04:51:10.463Z,0.360
2023-12-01T04:54:10.179Z,1.280
2023-12-01T04:55:09.813Z,1.280
2023-12-01T04:56:09.736Z,1.040
2023-12-01T04:57:10.224Z,2.000
2023-12-01T04:58:10.516Z,1.880
2023-12-01T04:59:10.394Z,1.840
2023-12-01T05:00:09.927Z,2.040
2023-12-01T05:01:10.540Z,3.440
2023-12-01T05:02:10.308Z,2.640
2023-12-01T05:03:10.418Z,2.320
2023-12-01T05:04:10.601Z,3.520
2023-12-01T05:05:09.897Z,1.560
2023-12-01T05:06:10.548Z,3.423
2023-12-01T05:09:10.189Z,3.560
2023-12-01T05:10:10.001Z,1.680
2023-12-01T05:11:09.697Z,1.760
2023-12-01T05:12:10.253Z,2.080
2023-12-01T05:13:10.999Z,2.400
2023-12-01T05:14:09.966Z,2.115
2023-12-01T05:15:10.450Z,2.040
2023-12-01T05:17:10.139Z,4.120
2023-12-01T05:18:10.291Z,2.000
2023-12-01T05:19:10.352Z,1.400
2023-12-01T05:20:10.394Z,2.560
2023-12-01T05:21:10.026Z,1.360
2023-12-01T05:22:10.002Z,2.880
2023-12-01T05:23:11.406Z,3.480
2023-12-01T05:24:10.143Z,2.680
2023-12-01T05:25:09.729Z,3.320
2023-12-01T05:26:09.879Z,3.040
2023-12-01T05:27:10.379Z,4.800
2023-12-01T05:28:09.953Z,3.960
2023-12-01T05:29:10.182Z,3.440
2023-12-01T05:30:09.695Z,2.120
2023-12-01T05:31:10.314Z,3.000
2023-12-01T05:32:10.376Z,1.960
2023-12-01T05:33:10.220Z,3.040
2023-12-01T05:34:11.412Z,2.120
2023-12-01T05:36:10.108Z,2.080
2023-12-01T05:37:10.366Z,2.080
2023-12-01T05:38:10.794Z,0.680
2023-12-01T05:39:10.295Z,1.480
2023-12-01T05:40:09.985Z,0.040
2023-12-01T05:41:10.175Z,1.640
2023-12-01T05:42:10.636Z,1.416
2023-12-01T05:43:10.260Z,2.197
2023-12-01T05:44:10.336Z,0.400
2023-12-01T05:45:10.047Z,0.760
2023-12-01T05:46:09.891Z,2.240
2023-12-01T05:47:10.447Z,2.320
2023-12-01T05:48:10.831Z,2.400
2023-12-01T05:49:09.842Z,2.120
2023-12-01T05:50:10.333Z,1.360
2023-12-01T05:51:10.201Z,1.040
2023-12-01T05:52:10.380Z,0.640
2023-12-01T05:53:10.555Z,1.770
2023-12-01T05:54:10.161Z,0.895
2023-12-01T05:55:10.664Z,1.298
2023-12-01T05:56:09.671Z,1.464
2023-12-01T05:57:10.179Z,1.720
2023-12-01T06:00:10.047Z,1.840
2023-12-01T06:01:10.211Z,1.920
2023-12-01T06:02:10.988Z,1.840
2023-12-01T06:03:10.150Z,1.280
2023-12-01T06:04:10.729Z,0.787
2023-12-01T06:05:10.524Z,0.488
2023-12-01T06:08:10.484Z,2.760
2023-12-01T06:09:10.177Z,3.080
2023-12-01T06:10:10.719Z,2.085
2023-12-01T06:11:10.466Z,3.295
2023-12-01T06:13:10.068Z,1.120
2023-12-01T06:14:10.024Z,2.480
2023-12-01T06:15:10.570Z,1.810
2023-12-01T06:16:10.333Z,0.773
2023-12-01T06:17:10.398Z,1.560
2023-12-01T06:19:11.594Z,3.800
2023-12-01T06:22:10.239Z,1.480
2023-12-01T06:23:09.918Z,1.240
2023-12-01T06:24:10.408Z,0.960
2023-12-01T06:25:10.200Z,1.440
2023-12-01T06:28:10.989Z,1.840
2023-12-01T06:29:10.073Z,1.880
2023-12-01T06:30:10.052Z,1.840
2023-12-01T06:31:12.306Z,1.760
2023-12-01T06:34:10.315Z,2.400
2023-12-01T06:35:10.528Z,1.560
2023-12-01T06:36:10.055Z,2.520
2023-12-01T06:37:10.639Z,2.480
2023-12-01T06:38:10.707Z,1.770
2023-12-01T06:39:10.156Z,1.139
2023-12-01T06:40:10.767Z,1.338
2023-12-01T06:41:09.956Z,2.888
2023-12-01T06:42:10.604Z,2.518
2023-12-01T06:44:09.816Z,0.360
2023-12-01T06:45:10.269Z,0.080
2023-12-01T06:46:10.043Z,0.160
2023-12-01T06:47:10.114Z,1.680
2023-12-01T06:49:10.062Z,2.040
2023-12-01T06:50:09.852Z,0.400
2023-12-01T06:51:10.381Z,1.440
2023-12-01T06:52:09.886Z,2.000
2023-12-01T06:54:10.173Z,1.960
2023-12-01T06:55:10.002Z,2.360
2023-12-01T06:56:10.370Z,2.480
2023-12-01T06:57:09.915Z,1.840
2023-12-01T06:58:10.005Z,3.320
2023-12-01T06:59:13.207Z,3.320
2023-12-01T07:00:09.687Z,0.720
2023-12-01T07:01:10.337Z,3.760
2023-12-01T07:02:10.851Z,2.911
2023-12-01T07:03:10.155Z,2.319
2023-12-01T07:04:10.154Z,2.440
2023-12-01T07:05:09.921Z,2.600
2023-12-01T07:06:10.472Z,2.880
2023-12-01T07:07:10.039Z,1.160
2023-12-01T07:10:10.611Z,2.720
2023-12-01T07:12:10.075Z,3.200
2023-12-01T07:13:10.180Z,2.840
2023-12-01T07:14:10.644Z,2.085
2023-12-01T07:15:10.248Z,2.888
2023-12-01T07:16:10.434Z,2.400
2023-12-01T07:17:10.241Z,2.720
2023-12-01T07:20:10.483Z,2.888
2023-12-01T07:21:10.175Z,2.520
2023-12-01T07:23:12.592Z,2.990
2023-12-01T07:24:10.059Z,3.417
2023-12-01T07:25:10.166Z,3.680
2023-12-01T07:26:10.575Z,2.951
2023-12-01T07:27:10.172Z,0.325
2023-12-01T07:30:10.060Z,0.000
2023-12-01T07:31:11.236Z,0.000
2023-12-01T07:32:10.198Z,0.000
2023-12-01T07:34:10.613Z,0.000
2023-12-01T07:35:10.415Z,0.000
2023-12-01T07:37:09.901Z,0.000
2023-12-01T07:38:10.181Z,0.000
2023-12-01T07:39:11.472Z,0.000
2023-12-01T07:41:10.148Z,0.000
2023-12-01T07:42:10.222Z,0.000
2023-12-01T07:43:10.461Z,0.000
2023-12-01T07:44:10.752Z,0.000
2023-12-01T07:45:11.666Z,0.000
2023-12-01T07:46:10.665Z,0.000
2023-12-01T07:47:10.069Z,0.000
2023-12-01T07:48:09.796Z,0.000
2023-12-01T07:49:13.901Z,0.000
2023-12-01T07:51:10.200Z,0.000
2023-12-01T07:52:09.898Z,0.000
2023-12-01T07:53:10.444Z,0.000
2023-12-01T07:54:10.155Z,0.000
2023-12-01T07:55:10.060Z,0.000
2023-12-01T07:57:10.596Z,0.000
2023-12-01T07:58:10.137Z,0.000
2023-12-01T08:00:10.444Z,0.000
2023-12-01T08:01:10.156Z,0.000
2023-12-01T08:02:10.250Z,0.000
2023-12-01T08:04:10.482Z,0.000
2023-12-01T08:05:10.520Z,0.000
2023-12-01T08:06:09.815Z,0.000
2023-12-01T08:07:11.920Z,0.000
2023-12-01T08:08:09.850Z,0.000
2023-12-01T08:09:10.097Z,0.000
2023-12-01T08:10:11.240Z,0.000
2023-12-01T08:13:10.601Z,0.000
2023-12-01T08:14:10.560Z,0.000
2023-12-01T08:15:10.330Z,0.000
2023-12-01T08:16:10.541Z,0.000
2023-12-01T08:17:10.241Z,0.000
2023-12-01T08:19:10.617Z,0.000
2023-12-01T08:20:09.814Z,0.000
2023-12-01T08:21:11.458Z,0.000
2023-12-01T08:22:09.981Z,0.000
2023-12-01T08:23:10.396Z,0.000
2023-12-01T08:24:10.137Z,0.000
2023-12-01T08:26:09.730Z,0.000
2023-12-01T08:27:11.906Z,0.000
2023-12-01T08:29:10.162Z,0.000
2023-12-01T08:30:10.390Z,0.000
2023-12-01T08:31:09.752Z,0.000
2023-12-01T08:32:10.705Z,0.000
2023-12-01T08:33:09.888Z,0.000
2023-12-01T08:34:22.450Z,0.000
2023-12-01T08:36:10.069Z,0.000
2023-12-01T08:37:09.994Z,0.000
2023-12-01T08:38:10.486Z,0.000
2023-12-01T08:39:10.080Z,0.000
2023-12-01T08:40:10.684Z,0.000
2023-12-01T08:41:10.014Z,0.000
2023-12-01T08:42:10.563Z,0.000
2023-12-01T08:44:09.919Z,0.000
2023-12-01T08:45:10.658Z,0.000
2023-12-01T08:46:10.652Z,0.000
2023-12-01T08:47:10.479Z,0.000
2023-12-01T08:48:10.496Z,0.000
2023-12-01T08:49:10.190Z,0.000
2023-12-01T08:50:15.417Z,0.000
2023-12-01T08:51:11.038Z,0.000
2023-12-01T08:54:10.172Z,0.000
2023-12-01T08:55:11.370Z,0.000
2023-12-01T08:56:09.906Z,0.000
2023-12-01T08:57:10.583Z,0.000
2023-12-01T08:58:10.106Z,0.000
2023-12-01T09:00:10.596Z,0.000
2023-12-01T09:01:10.422Z,0.000
2023-12-01T09:02:15.557Z,0.000
2023-12-01T09:03:09.886Z,0.000
2023-12-01T09:04:10.948Z,0.000
2023-12-01T09:05:10.171Z,0.000
2023-12-01T09:06:10.631Z,0.000
2023-12-01T09:07:09.870Z,0.000
2023-12-01T09:08:10.180Z,0.000
2023-12-01T09:09:10.441Z,0.000
2023-12-01T09:11:09.890Z,0.000
2023-12-01T09:12:10.581Z,0.000
2023-12-01T09:13:12.046Z,0.000
2023-12-01T09:14:09.858Z,0.000
2023-12-01T09:15:10.464Z,0.040
2023-12-01T09:17:09.946Z,0.520
2023-12-01T09:18:10.454Z,0.880
2023-12-01T09:19:10.065Z,3.120
2023-12-01T09:20:10.496Z,0.840
2023-12-01T09:21:10.197Z,0.400
2023-12-01T09:22:10.701Z,0.079
2023-12-01T09:23:10.684Z,0.440
2023-12-01T09:24:10.340Z,2.603
2023-12-01T09:25:12.197Z,1.800
2023-12-01T09:27:10.470Z,0.366
2023-12-01T09:28:10.507Z,4.760
2023-12-01T09:29:10.211Z,6.560
2023-12-01T09:30:09.867Z,5.760
2023-12-01T09:31:10.342Z,6.480
2023-12-01T09:32:10.380Z,8.080
2023-12-01T09:33:10.274Z,4.800
2023-12-01T09:34:10.488Z,5.200
2023-12-01T09:35:10.279Z,4.160
2023-12-01T09:37:10.716Z,0.787
2023-12-01T09:38:10.468Z,3.132
2023-12-01T09:39:10.249Z,5.960
2023-12-01T09:41:09.995Z,3.160
2023-12-01T09:42:10.249Z,1.880
2023-12-01T09:43:10.317Z,3.160
2023-12-01T09:44:15.286Z,0.840
2023-12-01T09:45:09.838Z,1.480
2023-12-01T09:46:10.689Z,3.305
2023-12-01T09:48:10.321Z,1.586
2023-12-01T09:49:10.581Z,3.520
2023-12-01T09:50:10.159Z,4.280
2023-12-01T09:53:10.649Z,1.534
2023-12-01T09:54:10.799Z,4.000
2023-12-01T09:55:10.395Z,3.580
2023-12-01T09:57:11.441Z,0.840
2023-12-01T09:58:10.565Z,3.800
2023-12-01T09:59:10.166Z,1.440
2023-12-01T10:00:10.084Z,2.080
2023-12-01T10:01:10.485Z,2.480
2023-12-01T10:02:10.268Z,2.320
2023-12-01T10:04:10.174Z,2.680
2023-12-01T10:05:09.904Z,3.720
2023-12-01T10:06:10.514Z,2.640
2023-12-01T10:08:09.823Z,1.280
2023-12-01T10:09:10.766Z,2.833
2023-12-01T10:10:10.518Z,3.051
2023-12-01T10:13:11.502Z,3.960
2023-12-01T10:14:09.653Z,3.440
2023-12-01T10:15:10.390Z,3.480
2023-12-01T10:16:10.241Z,2.320
2023-12-01T10:17:10.561Z,3.462
2023-12-01T10:18:11.112Z,3.214
2023-12-01T10:19:11.359Z,3.760
2023-12-01T10:20:09.851Z,4.160
2023-12-01T10:21:10.629Z,4.160
2023-12-01T10:22:10.421Z,3.760
2023-12-01T10:24:09.681Z,4.800
2023-12-01T10:25:10.068Z,5.640
2023-12-01T10:26:10.353Z,6.440
2023-12-01T10:27:10.007Z,7.560
2023-12-01T10:28:10.590Z,5.469
2023-12-01T10:29:10.427Z,2.237
2023-12-01T10:30:10.652Z,3.760
2023-12-01T10:31:09.721Z,3.520
2023-12-01T10:32:10.486Z,4.480
2023-12-01T10:33:10.322Z,4.440
2023-12-01T10:34:10.514Z,5.440
2023-12-01T10:35:09.993Z,7.080
2023-12-01T10:36:10.762Z,5.784
2023-12-01T10:37:10.682Z,5.960
2023-12-01T10:38:10.489Z,5.776
2023-12-01T10:39:10.112Z,7.000
2023-12-01T10:41:09.960Z,5.320
2023-12-01T10:42:10.381Z,3.280
2023-12-01T10:43:10.491Z,6.760
2023-12-01T10:44:10.194Z,5.080
2023-12-01T10:45:10.306Z,5.960
2023-12-01T10:46:10.299Z,6.960
2023-12-01T10:47:12.058Z,5.920
2023-12-01T10:48:10.255Z,6.560
2023-12-01T10:49:10.051Z,7.680
2023-12-01T10:50:10.606Z,5.902
2023-12-01T10:51:10.225Z,6.875
2023-12-01T10:52:10.420Z,6.520
2023-12-01T10:53:09.968Z,5.120
2023-12-01T10:54:10.519Z,7.120
2023-12-01T10:55:10.579Z,3.777
2023-12-01T10:56:10.353Z,4.800
2023-12-01T10:57:10.651Z,5.240
2023-12-01T10:58:09.799Z,4.040
2023-12-01T10:59:10.435Z,3.600
2023-12-01T11:00:10.200Z,4.800
2023-12-01T11:02:10.028Z,5.280
2023-12-01T11:03:12.442Z,6.059
2023-12-01T11:04:10.009Z,3.824
2023-12-01T11:05:10.085Z,4.640
2023-12-01T11:07:09.972Z,3.640
2023-12-01T11:09:10.083Z,1.920
2023-12-01T11:10:10.333Z,1.840
2023-12-01T11:11:10.032Z,1.720
2023-12-01T11:12:09.922Z,3.360
2023-12-01T11:13:09.898Z,3.680
2023-12-01T11:14:09.726Z,2.680
2023-12-01T11:15:10.895Z,5.075
2023-12-01T11:16:10.416Z,5.980
2023-12-01T11:18:10.182Z,5.080
2023-12-01T11:19:10.252Z,5.920
2023-12-01T11:20:10.286Z,4.600
2023-12-01T11:21:09.824Z,3.840
2023-12-01T11:22:09.824Z,4.320
2023-12-01T11:23:09.950Z,5.120
2023-12-01T11:24:09.787Z,5.480
2023-12-01T11:25:09.986Z,7.320
2023-12-01T11:26:10.110Z,5.520
2023-12-01T11:27:10.533Z,2.240
2023-12-01T11:28:10.560Z,3.580
2023-12-01T11:29:11.806Z,1.953
2023-12-01T11:31:10.172Z,3.680
2023-12-01T11:32:10.749Z,6.280
2023-12-01T11:33:10.200Z,4.320
2023-12-01T11:35:11.352Z,2.320
2023-12-01T11:36:09.940Z,3.200
2023-12-01T11:37:10.517Z,5.640
2023-12-01T11:39:10.142Z,9.040
2023-12-01T11:40:10.470Z,5.200
2023-12-01T11:41:10.177Z,7.840
2023-12-01T11:42:10.402Z,7.000
2023-12-01T11:43:19.689Z,4.200
2023-12-01T11:44:10.577Z,5.480
2023-12-01T11:45:10.554Z,6.000
2023-12-01T11:46:10.166Z,7.280
2023-12-01T11:48:10.813Z,6.520
2023-12-01T11:49:10.842Z,5.000
2023-12-01T11:50:09.883Z,3.160
2023-12-01T11:51:09.977Z,6.640
2023-12-01T11:52:10.230Z,7.200
2023-12-01T11:53:10.734Z,7.043
2023-12-01T11:54:09.824Z,7.403
2023-12-01T11:55:10.589Z,8.892
2023-12-01T11:57:10.642Z,7.320
2023-12-01T11:58:10.242Z,6.840
2023-12-01T11:59:10.565Z,7.239
2023-12-01T12:00:10.495Z,7.892
2023-12-01T12:02:10.112Z,5.480
2023-12-01T12:03:10.406Z,7.720
2023-12-01T12:04:10.217Z,7.120
2023-12-01T12:06:09.783Z,6.840
2023-12-01T12:07:09.941Z,5.720
2023-12-01T12:08:10.257Z,5.160
2023-12-01T12:09:10.285Z,4.920
2023-12-01T12:10:10.757Z,3.974
2023-12-01T12:11:10.300Z,4.637
2023-12-01T12:14:10.334Z,8.720
2023-12-01T12:15:10.212Z,8.720
2023-12-01T12:16:10.626Z,7.680
2023-12-01T12:17:10.486Z,8.200
2023-12-01T12:18:10.882Z,8.262
2023-12-01T12:20:15.501Z,8.000
2023-12-01T12:22:10.723Z,6.160
2023-12-01T12:23:10.700Z,8.734
2023-12-01T12:24:10.406Z,9.763
2023-12-01T12:25:10.121Z,7.200
2023-12-01T12:27:09.877Z,8.880
2023-12-01T12:28:09.963Z,7.520
2023-12-01T12:29:09.958Z,8.960
2023-12-01T12:30:10.024Z,6.120
2023-12-01T12:31:10.472Z,8.040
2023-12-01T12:32:10.809Z,5.840
2023-12-01T12:33:09.989Z,4.520
2023-12-01T12:34:10.301Z,3.920
2023-12-01T12:35:10.812Z,3.974
2023-12-01T12:36:10.008Z,4.800
2023-12-01T12:37:10.364Z,4.920
2023-12-01T12:38:10.233Z,5.240
2023-12-01T12:39:10.546Z,8.080
2023-12-01T12:42:09.925Z,5.520
2023-12-01T12:43:10.093Z,8.240
2023-12-01T12:44:10.672Z,6.649
2023-12-01T12:45:10.385Z,6.386
2023-12-01T12:47:10.901Z,5.360
2023-12-01T12:48:09.926Z,5.400
2023-12-01T12:49:10.588Z,8.970
2023-12-01T12:50:10.138Z,5.980
2023-12-01T12:51:10.166Z,3.760
2023-12-01T12:52:10.323Z,6.480
2023-12-01T12:53:09.918Z,6.760
2023-12-01T12:54:10.563Z,3.520
2023-12-01T12:55:10.398Z,7.600
2023-12-01T12:57:10.081Z,5.320
2023-12-01T12:58:09.750Z,7.080
2023-12-01T12:59:10.483Z,11.200
2023-12-01T13:00:10.093Z,7.760
2023-12-01T13:01:10.422Z,5.960
2023-12-01T13:02:10.517Z,5.720
2023-12-01T13:03:10.272Z,4.320
2023-12-01T13:06:10.692Z,5.920
2023-12-01T13:08:10.420Z,5.736
2023-12-01T13:09:09.961Z,3.800
2023-12-01T13:12:10.397Z,7.600
2023-12-01T13:13:10.160Z,7.080
2023-12-01T13:14:10.036Z,8.560
2023-12-01T13:17:10.335Z,5.329
2023-12-01T13:19:10.425Z,7.840
2023-12-01T13:20:10.671Z,6.098
2023-12-01T13:21:10.363Z,4.759
2023-12-01T13:24:10.347Z,4.840
2023-12-01T13:25:09.758Z,7.040
2023-12-01T13:26:10.455Z,6.280
2023-12-01T13:27:10.108Z,4.160
2023-12-01T13:28:10.069Z,6.360
2023-12-01T13:29:09.942Z,4.240
2023-12-01T13:30:10.258Z,7.920
2023-12-01T13:31:10.450Z,6.400
2023-12-01T13:32:10.268Z,5.160
2023-12-01T13:33:10.331Z,6.440
2023-12-01T13:34:09.890Z,5.600
2023-12-01T13:35:10.463Z,4.560
2023-12-01T13:36:10.714Z,5.760
2023-12-01T13:37:09.880Z,7.560
2023-12-01T13:38:10.699Z,4.957
2023-12-01T13:39:10.335Z,5.410
2023-12-01T13:40:10.565Z,3.240
2023-12-01T13:41:10.097Z,3.320
2023-12-01T13:42:09.909Z,4.280
2023-12-01T13:43:10.186Z,3.280
2023-12-01T13:44:09.889Z,3.800
2023-12-01T13:45:14.175Z,3.720
2023-12-01T13:47:10.320Z,4.120
2023-12-01T13:48:10.447Z,4.800
2023-12-01T13:49:10.622Z,6.452
2023-12-01T13:50:10.207Z,5.166
2023-12-01T13:51:09.726Z,3.440
2023-12-01T13:52:10.572Z,3.760
2023-12-01T13:53:10.128Z,4.600
2023-12-01T13:54:10.780Z,5.036
2023-12-01T13:55:10.693Z,5.440
2023-12-01T13:56:15.318Z,5.451
2023-12-01T13:57:10.255Z,5.840
2023-12-01T13:58:10.562Z,6.120
2023-12-01T13:59:09.965Z,4.400
2023-12-01T14:01:09.977Z,4.280
2023-12-01T14:02:10.471Z,4.440
2023-12-01T14:03:20.664Z,5.920
2023-12-01T14:04:10.262Z,5.080
2023-12-01T14:05:09.971Z,6.080
2023-12-01T14:06:11.078Z,3.620
2023-12-01T14:07:10.304Z,2.644
2023-12-01T14:10:10.633Z,7.790
2023-12-01T14:11:10.525Z,5.654
2023-12-01T14:12:11.372Z,4.480
2023-12-01T14:15:10.507Z,5.040
2023-12-01T14:16:10.328Z,4.040
2023-12-01T14:18:10.727Z,9.000
2023-12-01T14:19:10.033Z,4.840
2023-12-01T14:20:10.681Z,3.384
2023-12-01T14:22:10.226Z,5.400
2023-12-01T14:23:09.822Z,5.280
2023-12-01T14:24:10.369Z,5.000
2023-12-01T14:25:10.537Z,3.480
2023-12-01T14:26:10.196Z,4.720
2023-12-01T14:28:10.712Z,3.108
2023-12-01T14:29:09.779Z,4.393
2023-12-01T14:30:10.525Z,10.600
2023-12-01T14:31:10.667Z,6.280
2023-12-01T14:32:15.843Z,4.320
2023-12-01T14:33:10.818Z,4.761
2023-12-01T14:34:10.687Z,3.458
2023-12-01T14:35:10.428Z,6.320
2023-12-01T14:36:09.848Z,6.440
2023-12-01T14:38:10.333Z,9.280
2023-12-01T14:39:10.271Z,6.680
2023-12-01T14:40:11.574Z,8.880
2023-12-01T14:41:10.154Z,8.760
2023-12-01T14:42:10.370Z,4.520
2023-12-01T14:45:10.111Z,8.440
2023-12-01T14:46:11.558Z,4.040
2023-12-01T14:47:10.319Z,5.240
2023-12-01T14:48:09.998Z,5.000
2023-12-01T14:49:10.359Z,5.040
2023-12-01T14:50:09.988Z,8.400
2023-12-01T14:52:09.729Z,4.760
2023-12-01T14:53:10.257Z,4.400
2023-12-01T14:54:10.059Z,2.080
2023-12-01T14:57:10.377Z,5.680
2023-12-01T14:58:10.148Z,4.640
2023-12-01T14:59:09.878Z,4.720
2023-12-01T15:00:10.529Z,5.560
2023-12-01T15:01:09.722Z,7.560
2023-12-01T15:02:10.719Z,5.600
2023-12-01T15:03:10.142Z,3.160
2023-12-01T15:05:10.293Z,5.800
2023-12-01T15:06:09.925Z,3.520
2023-12-01T15:07:10.267Z,2.640
2023-12-01T15:08:10.019Z,4.400
2023-12-01T15:09:10.200Z,2.080
2023-12-01T15:10:10.552Z,5.902
2023-12-01T15:11:10.309Z,4.841
2023-12-01T15:12:10.512Z,5.640
2023-12-01T15:13:10.187Z,4.640
2023-12-01T15:15:10.466Z,2.640
2023-12-01T15:16:10.632Z,5.080
2023-12-01T15:17:10.265Z,3.360
2023-12-01T15:19:10.126Z,3.120
2023-12-01T15:20:10.011Z,4.200
2023-12-01T15:21:10.058Z,5.560
2023-12-01T15:22:10.278Z,3.800
2023-12-01T15:23:10.103Z,4.880
2023-12-01T15:24:10.266Z,3.600
2023-12-01T15:25:10.541Z,4.720
2023-12-01T15:26:10.270Z,3.120
2023-12-01T15:27:09.928Z,2.600
2023-12-01T15:29:10.345Z,3.680
2023-12-01T15:30:10.052Z,2.840
2023-12-01T15:32:10.076Z,2.400
2023-12-01T15:33:10.094Z,2.000
2023-12-01T15:34:10.291Z,2.120
2023-12-01T15:35:09.977Z,2.280
2023-12-01T15:36:10.133Z,0.120
2023-12-01T15:37:10.448Z,1.920
2023-12-01T15:38:10.192Z,0.000
2023-12-01T15:39:10.425Z,0.000
2023-12-01T15:40:09.965Z,0.000
2023-12-01T15:42:10.280Z,0.000
2023-12-01T15:43:09.988Z,0.000
2023-12-01T15:44:10.692Z,0.000
2023-12-01T15:46:10.181Z,0.000
2023-12-01T15:47:09.841Z,0.000
2023-12-01T15:48:10.300Z,0.000